createdAt,value
2022-08-04T00:02:06.821Z,19.80
2022-08-04T00:04:54.161Z,19.50
2022-08-04T00:07:44.834Z,20.00
2022-08-04T00:10:16.308Z,21.50
2022-08-04T00:12:48.264Z,20.00
2022-08-04T00:15:17.063Z,20.90
2022-08-04T00:17:46.874Z,21.50
2022-08-04T00:20:18.661Z,21.50
2022-08-04T00:22:48.952Z,20.50
2022-08-04T00:25:16.932Z,20.60
2022-08-04T00:27:44.616Z,21.70
2022-08-04T00:30:12.258Z,21.40
2022-08-04T00:32:41.526Z,22.10
2022-08-04T00:35:10.699Z,21.90
2022-08-04T00:37:38.920Z,22.40
2022-08-04T00:40:18.184Z,21.70
2022-08-04T00:43:07.025Z,22.10
2022-08-04T00:46:15.538Z,22.50
2022-08-04T00:49:01.139Z,22.40
2022-08-04T00:51:48.147Z,22.60
2022-08-04T00:55:11.062Z,23.60
2022-08-04T00:57:53.496Z,23.20
2022-08-04T01:00:22.165Z,22.90
2022-08-04T01:03:08.474Z,23.00
2022-08-04T01:06:18.919Z,23.90
2022-08-04T01:09:05.259Z,24.10
2022-08-04T01:12:08.453Z,24.10
2022-08-04T01:15:10.606Z,24.70
2022-08-04T01:18:06.801Z,24.40
2022-08-04T01:21:00.225Z,24.10
2022-08-04T01:23:52.651Z,23.40
2022-08-04T01:26:42.105Z,24.70
2022-08-04T01:29:15.777Z,26.10
2022-08-04T01:32:05.465Z,23.80
2022-08-04T01:34:42.687Z,25.40
2022-08-04T01:37:23.573Z,25.20
2022-08-04T01:40:01.389Z,24.60
2022-08-04T01:42:32.578Z,26.50
2022-08-04T01:45:06.725Z,25.70
2022-08-04T01:47:36.614Z,26.80
2022-08-04T01:50:07.463Z,25.10
2022-08-04T01:52:36.845Z,25.70
2022-08-04T01:55:06.912Z,25.70
2022-08-04T01:57:45.967Z,25.90
2022-08-04T02:00:17.193Z,26.30
2022-08-04T02:02:45.908Z,27.50
2022-08-04T02:05:18.019Z,27.60
2022-08-04T02:08:02.129Z,27.60
2022-08-04T02:10:29.732Z,26.70
2022-08-04T02:13:11.901Z,28.20
2022-08-04T02:15:50.048Z,29.80
2022-08-04T02:18:27.569Z,27.80
2022-08-04T02:20:58.619Z,29.80
2022-08-04T02:23:31.082Z,28.70
2022-08-04T02:26:03.207Z,28.10
2022-08-04T02:28:36.601Z,28.00
2022-08-04T02:31:17.714Z,27.10
2022-08-04T02:33:55.361Z,27.90
2022-08-04T02:36:36.225Z,26.60
2022-08-04T02:39:05.951Z,28.40
2022-08-04T02:41:34.538Z,27.50
2022-08-04T02:44:05.135Z,28.20
2022-08-04T02:46:34.610Z,27.70
2022-08-04T02:49:04.995Z,28.10
2022-08-04T02:51:37.806Z,26.40
2022-08-04T02:54:07.033Z,26.90
2022-08-04T02:56:37.478Z,29.00
2022-08-04T02:59:09.291Z,28.80
2022-08-04T03:01:37.537Z,28.40
2022-08-04T03:04:34.565Z,29.90
2022-08-04T03:07:24.102Z,29.80
2022-08-04T03:10:36.719Z,30.00
2022-08-04T03:13:32.854Z,28.60
2022-08-04T03:16:08.813Z,29.60
2022-08-04T03:19:20.742Z,30.40
2022-08-04T03:22:08.030Z,30.80
2022-08-04T03:25:09.945Z,31.20
2022-08-04T03:27:53.200Z,30.60
2022-08-04T03:30:29.396Z,32.60
2022-08-04T03:33:20.933Z,32.80
2022-08-04T03:36:31.677Z,33.70
2022-08-04T03:39:19.463Z,33.50
2022-08-04T03:42:04.215Z,34.80
2022-08-04T03:44:44.992Z,33.20
2022-08-04T03:47:46.886Z,34.70
2022-08-04T03:50:41.662Z,32.10
2022-08-04T03:53:27.984Z,30.90
2022-08-04T03:56:23.968Z,32.70
2022-08-04T03:59:14.831Z,33.80
2022-08-04T04:02:11.740Z,33.40
2022-08-04T04:05:01.052Z,31.80
2022-08-04T04:07:40.252Z,29.50
2022-08-04T04:10:47.879Z,29.70
2022-08-04T04:13:51.383Z,29.10
2022-08-04T04:16:50.245Z,28.60
2022-08-04T04:19:50.498Z,27.20
2022-08-04T04:22:38.284Z,28.10
2022-08-04T04:25:25.604Z,27.10
2022-08-04T04:28:43.790Z,29.10
2022-08-04T04:31:26.858Z,25.90
2022-08-04T04:34:06.458Z,25.20
2022-08-04T04:36:58.361Z,25.10
2022-08-04T04:39:36.640Z,23.70
2022-08-04T04:42:36.305Z,22.60
2022-08-04T04:45:17.634Z,22.00
2022-08-04T04:48:08.536Z,22.30
2022-08-04T04:51:09.151Z,21.90
2022-08-04T04:54:01.262Z,20.10
2022-08-04T04:56:37.321Z,19.70
2022-08-04T04:59:09.921Z,19.50
2022-08-04T05:01:51.696Z,19.80
2022-08-04T05:04:52.749Z,19.40
2022-08-04T05:07:53.083Z,18.50
2022-08-04T05:10:58.245Z,18.20
2022-08-04T05:14:37.889Z,18.60
2022-08-04T05:16:31.632Z,17.10
2022-08-04T05:19:33.892Z,18.10
2022-08-04T05:22:10.106Z,16.70
2022-08-04T05:24:43.341Z,17.00
2022-08-04T05:27:25.713Z,16.90
2022-08-04T05:29:56.599Z,15.70
2022-08-04T05:32:28.638Z,17.00
2022-08-04T05:35:00.488Z,16.60
2022-08-04T05:37:30.379Z,15.00
2022-08-04T05:40:02.894Z,16.30
2022-08-04T05:42:35.977Z,15.70
2022-08-04T05:45:04.377Z,15.60
2022-08-04T05:47:33.042Z,15.90
2022-08-04T05:50:03.072Z,15.90
2022-08-04T05:52:31.723Z,16.30
2022-08-04T05:55:00.658Z,15.70
2022-08-04T05:57:29.209Z,14.40
2022-08-04T05:59:59.986Z,14.40
2022-08-04T06:02:28.529Z,14.00
2022-08-04T06:04:57.094Z,13.90
2022-08-04T06:07:26.637Z,14.10
2022-08-04T06:09:54.937Z,12.60
2022-08-04T06:12:40.465Z,14.70
2022-08-04T06:15:09.438Z,14.00
2022-08-04T06:18:33.398Z,14.60
2022-08-04T06:20:31.714Z,13.00
2022-08-04T06:23:06.310Z,13.40
2022-08-04T06:25:39.510Z,20.60
2022-08-04T06:28:08.258Z,13.00
2022-08-04T06:30:37.244Z,12.70
2022-08-04T06:33:14.099Z,13.70
2022-08-04T06:35:42.127Z,13.80
2022-08-04T06:38:09.953Z,12.90
2022-08-04T06:40:40.830Z,13.00
2022-08-04T06:43:08.791Z,12.20
2022-08-04T06:45:38.125Z,12.40
2022-08-04T06:48:06.828Z,12.50
2022-08-04T06:51:25.897Z,10.80
2022-08-04T06:53:25.470Z,10.90
2022-08-04T06:55:54.126Z,10.70
2022-08-04T06:58:22.279Z,11.10
2022-08-04T07:00:50.859Z,11.20
2022-08-04T07:03:19.568Z,10.60
2022-08-04T07:05:48.617Z,11.50
2022-08-04T07:08:16.735Z,11.70
2022-08-04T07:10:45.437Z,11.00
2022-08-04T07:13:13.806Z,11.20
2022-08-04T07:15:45.131Z,11.10
2022-08-04T07:18:12.899Z,10.90
2022-08-04T07:20:43.180Z,11.40
2022-08-04T07:23:17.205Z,11.30
2022-08-04T07:26:11.310Z,9.70
2022-08-04T07:28:40.490Z,11.20
2022-08-04T07:31:33.084Z,9.90
2022-08-04T07:34:17.248Z,9.40
2022-08-04T07:36:52.761Z,9.50
2022-08-04T07:39:27.729Z,9.40
2022-08-04T07:42:01.580Z,8.70
2022-08-04T07:44:32.202Z,9.10
2022-08-04T07:47:01.890Z,8.50
2022-08-04T07:49:52.223Z,8.70
2022-08-04T07:52:18.218Z,8.50
2022-08-04T07:54:45.806Z,8.90
2022-08-04T07:57:20.706Z,8.70
2022-08-04T08:00:01.044Z,8.60
2022-08-04T08:02:29.388Z,8.60
2022-08-04T08:04:57.133Z,8.60
2022-08-04T08:07:24.989Z,8.80
2022-08-04T08:09:52.645Z,10.60
2022-08-04T08:12:38.226Z,8.30
2022-08-04T08:15:10.357Z,9.40
2022-08-04T08:17:58.192Z,8.30
2022-08-04T08:20:31.664Z,8.60
2022-08-04T08:23:01.185Z,8.50
2022-08-04T08:25:31.626Z,8.20
2022-08-04T08:27:59.968Z,7.80
2022-08-04T08:30:31.819Z,8.30
2022-08-04T08:33:12.706Z,8.80
2022-08-04T08:35:54.847Z,8.70
2022-08-04T08:38:43.887Z,9.40
2022-08-04T08:41:26.483Z,8.10
2022-08-04T08:44:30.167Z,9.20
2022-08-04T08:48:06.322Z,9.00
2022-08-04T08:50:52.690Z,9.40
2022-08-04T08:53:34.371Z,9.50
2022-08-04T08:56:30.936Z,8.90
2022-08-04T08:59:16.713Z,9.30
2022-08-04T09:02:03.874Z,9.20
2022-08-04T09:04:54.486Z,10.40
2022-08-04T09:07:32.818Z,8.90
2022-08-04T09:10:17.989Z,9.20
2022-08-04T09:13:05.196Z,9.60
2022-08-04T09:15:36.424Z,8.50
2022-08-04T09:18:27.239Z,9.10
2022-08-04T09:21:10.463Z,9.10
2022-08-04T09:24:34.667Z,8.30
2022-08-04T09:26:59.943Z,7.80
2022-08-04T09:29:36.830Z,8.10
2022-08-04T09:32:22.527Z,7.30
2022-08-04T09:35:07.294Z,7.70
2022-08-04T09:37:49.245Z,8.10
2022-08-04T09:40:31.487Z,9.00
2022-08-04T09:43:59.218Z,7.90
2022-08-04T09:46:47.206Z,7.80
2022-08-04T09:49:18.528Z,8.10
2022-08-04T09:51:57.613Z,9.80
2022-08-04T09:54:31.019Z,8.60
2022-08-04T09:57:34.532Z,7.80
2022-08-04T10:00:06.546Z,9.00
2022-08-04T10:02:48.243Z,7.60
2022-08-04T10:05:22.342Z,8.40
2022-08-04T10:08:15.733Z,8.50
2022-08-04T10:11:00.395Z,8.80
2022-08-04T10:13:34.567Z,8.40
2022-08-04T10:16:43.481Z,8.10
2022-08-04T10:19:26.395Z,8.70
2022-08-04T10:22:27.332Z,8.40
2022-08-04T10:26:02.609Z,7.40
2022-08-04T10:28:06.573Z,8.00
2022-08-04T10:30:37.200Z,8.90
2022-08-04T10:33:26.186Z,7.80
2022-08-04T10:36:07.854Z,8.30
2022-08-04T10:38:49.664Z,7.60
2022-08-04T10:41:30.194Z,7.40
2022-08-04T10:44:42.425Z,7.40
2022-08-04T10:47:16.936Z,7.70
2022-08-04T10:49:52.381Z,7.20
2022-08-04T10:52:38.782Z,6.90
2022-08-04T10:55:23.731Z,7.90
2022-08-04T10:58:17.179Z,7.30
2022-08-04T11:00:46.189Z,7.30
2022-08-04T11:03:20.993Z,7.90
2022-08-04T11:06:04.713Z,7.50
2022-08-04T11:08:48.932Z,7.80
2022-08-04T11:11:22.677Z,7.40
2022-08-04T11:14:00.825Z,6.70
2022-08-04T11:16:51.934Z,7.60
2022-08-04T11:19:44.784Z,7.60
2022-08-04T11:22:39.869Z,9.20
2022-08-04T11:25:22.971Z,7.10
2022-08-04T11:28:20.026Z,7.10
2022-08-04T11:30:53.921Z,6.80
2022-08-04T11:33:54.818Z,6.70
2022-08-04T11:36:39.987Z,8.90
2022-08-04T11:39:30.810Z,7.20
2022-08-04T11:42:07.050Z,7.20
2022-08-04T11:44:43.517Z,6.90
2022-08-04T11:47:32.832Z,7.00
2022-08-04T11:50:08.770Z,7.40
2022-08-04T11:52:39.083Z,7.40
2022-08-04T11:55:09.996Z,6.60
2022-08-04T11:57:38.189Z,7.30
2022-08-04T12:00:17.546Z,6.20
2022-08-04T12:03:12.144Z,6.40
2022-08-04T12:05:59.986Z,11.70
2022-08-04T12:08:49.233Z,6.90
2022-08-04T12:11:28.634Z,6.80
2022-08-04T12:14:21.611Z,7.50
2022-08-04T12:16:58.820Z,8.00
2022-08-04T12:19:43.766Z,6.40
2022-08-04T12:22:29.813Z,6.20
2022-08-04T12:25:13.203Z,6.40
2022-08-04T12:27:53.846Z,6.10
2022-08-04T12:31:01.503Z,6.70
2022-08-04T12:33:17.995Z,6.10
2022-08-04T12:36:10.658Z,6.30
2022-08-04T12:38:47.660Z,5.90
2022-08-04T12:41:22.571Z,6.30
2022-08-04T12:43:50.613Z,6.50
2022-08-04T12:46:26.470Z,6.60
2022-08-04T12:49:00.847Z,6.00
2022-08-04T12:52:06.086Z,6.20
2022-08-04T12:54:28.809Z,6.10
2022-08-04T12:57:01.791Z,7.00
2022-08-04T12:59:30.338Z,5.50
2022-08-04T13:02:10.600Z,6.10
2022-08-04T13:04:51.474Z,6.00
2022-08-04T13:07:22.828Z,6.10
2022-08-04T13:09:51.867Z,6.10
2022-08-04T13:12:25.999Z,6.80
2022-08-04T13:15:10.848Z,7.40
2022-08-04T13:17:51.954Z,7.90
2022-08-04T13:20:34.222Z,7.40
2022-08-04T13:23:09.049Z,6.60
2022-08-04T13:26:43.169Z,6.00
2022-08-04T13:28:29.218Z,7.00
2022-08-04T13:30:59.957Z,6.90
2022-08-04T13:33:41.451Z,7.00
2022-08-04T13:36:10.629Z,6.10
2022-08-04T13:38:41.094Z,6.50
2022-08-04T13:41:09.109Z,6.60
2022-08-04T13:44:19.429Z,7.00
2022-08-04T13:46:51.049Z,6.50
2022-08-04T13:49:54.204Z,5.80
2022-08-04T13:52:11.443Z,6.20
2022-08-04T13:54:45.463Z,7.10
2022-08-04T13:57:19.213Z,5.60
2022-08-04T13:59:56.386Z,6.60
2022-08-04T14:02:39.686Z,6.40
2022-08-04T14:05:30.372Z,6.60
2022-08-04T14:08:04.177Z,6.80
2022-08-04T14:10:32.929Z,6.60
2022-08-04T14:13:04.292Z,6.50
2022-08-04T14:16:02.009Z,6.70
2022-08-04T14:18:32.928Z,6.10
2022-08-04T14:21:10.678Z,5.90
2022-08-04T14:23:47.229Z,6.80
2022-08-04T14:26:32.540Z,6.20
2022-08-04T14:29:35.873Z,7.00
2022-08-04T14:32:12.708Z,6.40
2022-08-04T14:34:45.090Z,6.30
2022-08-04T14:37:18.291Z,6.30
2022-08-04T14:40:18.137Z,6.10
2022-08-04T14:42:55.774Z,6.10
2022-08-04T14:45:31.222Z,7.10
2022-08-04T14:47:59.363Z,6.70
2022-08-04T14:50:36.277Z,8.10
2022-08-04T14:53:09.239Z,6.90
2022-08-04T14:55:38.280Z,7.80
2022-08-04T14:58:34.127Z,6.30
2022-08-04T15:00:57.414Z,7.00
2022-08-04T15:03:26.451Z,6.60
2022-08-04T15:06:05.402Z,6.40
2022-08-04T15:08:36.065Z,7.10
2022-08-04T15:11:03.833Z,6.70
2022-08-04T15:13:32.760Z,6.10
2022-08-04T15:16:07.335Z,6.10
2022-08-04T15:18:37.344Z,7.10
2022-08-04T15:21:06.727Z,6.20
2022-08-04T15:23:39.257Z,6.60
2022-08-04T15:26:13.910Z,6.00
2022-08-04T15:28:47.265Z,6.10
2022-08-04T15:32:05.669Z,6.20
2022-08-04T15:34:03.491Z,6.50
2022-08-04T15:36:56.060Z,9.20
2022-08-04T15:39:44.019Z,6.70
2022-08-04T15:42:22.105Z,6.60
2022-08-04T15:45:04.596Z,6.20
2022-08-04T15:47:32.694Z,9.20
2022-08-04T15:50:11.764Z,6.80
2022-08-04T15:53:01.422Z,6.00
2022-08-04T15:55:40.541Z,5.70
2022-08-04T15:58:08.447Z,5.70
2022-08-04T16:00:48.017Z,9.20
2022-08-04T16:03:58.946Z,6.60
2022-08-04T16:06:22.387Z,7.10
2022-08-04T16:08:58.178Z,6.30
2022-08-04T16:11:31.071Z,6.00
2022-08-04T16:13:59.679Z,6.20
2022-08-04T16:16:31.778Z,6.40
2022-08-04T16:19:06.996Z,6.50
2022-08-04T16:21:48.715Z,6.80
2022-08-04T16:24:35.541Z,6.00
2022-08-04T16:27:08.421Z,6.80
2022-08-04T16:29:40.123Z,7.60
2022-08-04T16:32:25.194Z,6.20
2022-08-04T16:34:56.916Z,6.20
2022-08-04T16:37:38.741Z,7.00
2022-08-04T16:40:35.287Z,5.70
2022-08-04T16:43:13.208Z,6.40
2022-08-04T16:46:02.596Z,6.60
2022-08-04T16:48:35.156Z,5.80
2022-08-04T16:51:10.584Z,6.40
2022-08-04T16:53:52.704Z,6.30
2022-08-04T16:56:29.461Z,6.30
2022-08-04T16:58:57.541Z,6.50
2022-08-04T17:01:32.585Z,6.60
2022-08-04T17:04:07.508Z,6.60
2022-08-04T17:06:40.869Z,6.50
2022-08-04T17:09:15.040Z,15.10
2022-08-04T17:11:44.826Z,6.50
2022-08-04T17:14:13.345Z,7.70
2022-08-04T17:16:42.525Z,6.10
2022-08-04T17:19:23.885Z,5.70
2022-08-04T17:22:04.062Z,6.60
2022-08-04T17:24:36.372Z,13.50
2022-08-04T17:29:52.899Z,6.40
2022-08-04T17:32:22.505Z,6.60
2022-08-04T17:34:53.531Z,6.90
2022-08-04T17:37:39.235Z,6.80
2022-08-04T17:40:13.098Z,6.40
2022-08-04T17:42:42.360Z,6.80
2022-08-04T17:48:08.987Z,7.00
2022-08-04T17:50:43.453Z,8.20
2022-08-04T17:53:13.138Z,8.00
2022-08-04T17:55:43.210Z,9.30
2022-08-04T17:58:20.862Z,9.40
2022-08-04T18:03:59.910Z,7.50
2022-08-04T18:06:27.519Z,6.70
2022-08-04T18:08:59.317Z,9.80
2022-08-04T18:11:56.780Z,8.10
2022-08-04T18:18:19.845Z,7.60
2022-08-04T18:20:21.038Z,8.00
2022-08-04T18:22:50.532Z,10.40
2022-08-04T18:25:23.285Z,7.30
2022-08-04T18:28:14.287Z,9.30
2022-08-04T18:30:54.783Z,9.80
2022-08-04T18:33:39.484Z,10.40
2022-08-04T18:39:13.459Z,10.10
2022-08-04T18:42:01.602Z,10.30
2022-08-04T18:44:32.678Z,21.20
2022-08-04T18:47:23.075Z,23.90
2022-08-04T18:51:01.835Z,29.20
2022-08-04T18:52:45.114Z,15.10
2022-08-04T18:55:55.994Z,15.90
2022-08-04T18:58:07.834Z,16.50
2022-08-04T19:00:45.826Z,19.20
2022-08-04T19:03:16.479Z,22.00
2022-08-04T19:05:51.405Z,9.40
2022-08-04T19:08:34.551Z,16.50
2022-08-04T19:11:36.958Z,12.30
2022-08-04T19:13:58.054Z,10.90
2022-08-04T19:16:28.357Z,11.70
2022-08-04T19:18:57.388Z,11.80
2022-08-04T19:21:58.738Z,13.70
2022-08-04T19:24:32.642Z,13.10
2022-08-04T19:27:07.153Z,12.70
2022-08-04T19:29:41.243Z,10.50
2022-08-04T19:32:16.140Z,10.40
2022-08-04T19:34:47.448Z,11.10
2022-08-04T19:37:58.596Z,10.00
2022-08-04T19:40:07.403Z,10.30
2022-08-04T19:42:35.864Z,10.10
2022-08-04T19:45:05.075Z,10.20
2022-08-04T19:48:17.906Z,14.00
2022-08-04T19:50:20.663Z,8.80
2022-08-04T19:52:52.906Z,9.90
2022-08-04T19:55:36.679Z,12.50
2022-08-04T19:58:08.326Z,9.20
2022-08-04T20:00:38.722Z,9.90
2022-08-04T20:03:09.966Z,9.40
2022-08-04T20:05:53.562Z,9.10
2022-08-04T20:08:27.844Z,8.30
2022-08-04T20:10:57.850Z,8.70
2022-08-04T20:13:30.948Z,10.10
2022-08-04T20:16:28.883Z,8.80
2022-08-04T20:18:56.662Z,8.20
2022-08-04T20:21:53.469Z,8.60
2022-08-04T20:24:38.645Z,9.60
2022-08-04T20:27:04.945Z,8.50
2022-08-04T20:29:40.245Z,9.30
2022-08-04T20:32:09.827Z,7.80
2022-08-04T20:34:40.200Z,8.20
2022-08-04T20:37:10.385Z,10.80
2022-08-04T20:39:38.494Z,7.70
2022-08-04T20:42:06.798Z,9.20
2022-08-04T20:44:46.255Z,8.40
2022-08-04T20:47:14.556Z,8.40
2022-08-04T20:49:42.643Z,8.10
2022-08-04T20:52:16.326Z,9.00
2022-08-04T20:54:49.231Z,8.60
2022-08-04T20:57:49.721Z,8.40
2022-08-04T21:00:13.464Z,8.00
2022-08-04T21:02:41.424Z,8.10
2022-08-04T21:05:09.580Z,8.70
2022-08-04T21:07:43.728Z,8.50
2022-08-04T21:10:11.825Z,8.40
2022-08-04T21:12:40.519Z,8.90
2022-08-04T21:15:14.466Z,8.40
2022-08-04T21:17:57.455Z,8.10
2022-08-04T21:20:31.359Z,8.50
2022-08-04T21:23:02.371Z,8.60
2022-08-04T21:25:31.650Z,8.50
2022-08-04T21:28:04.320Z,7.80
2022-08-04T21:30:37.076Z,8.00
2022-08-04T21:33:22.072Z,8.20
2022-08-04T21:35:54.323Z,8.30
2022-08-04T21:38:28.051Z,9.70
2022-08-04T21:40:58.875Z,8.30
2022-08-04T21:43:42.624Z,8.20
2022-08-04T21:46:11.403Z,8.60
2022-08-04T21:48:39.606Z,8.20
2022-08-04T21:51:57.791Z,7.80
2022-08-04T21:54:15.065Z,8.00
2022-08-04T21:59:33.510Z,7.30
2022-08-04T22:02:13.040Z,8.20
2022-08-04T22:04:40.696Z,8.30
2022-08-04T22:07:08.358Z,14.00
2022-08-04T22:09:41.150Z,7.60
2022-08-04T22:12:12.029Z,7.80
2022-08-04T22:14:40.365Z,7.50
2022-08-04T22:17:13.848Z,7.50
2022-08-04T22:19:55.052Z,7.70
2022-08-04T22:22:26.757Z,6.60
2022-08-04T22:25:01.363Z,7.40
2022-08-04T22:27:55.333Z,9.10
2022-08-04T22:30:23.591Z,7.00
2022-08-04T22:32:51.780Z,7.10
2022-08-04T22:35:35.808Z,8.00
2022-08-04T22:38:28.032Z,7.00
2022-08-04T22:41:00.258Z,6.80
2022-08-04T22:43:32.441Z,8.50
2022-08-04T22:46:06.396Z,6.40
2022-08-04T22:48:39.621Z,7.20
2022-08-04T22:51:12.875Z,6.60
2022-08-04T22:53:42.029Z,7.00
2022-08-04T22:56:37.738Z,7.20
2022-08-04T22:59:10.006Z,6.40
2022-08-04T23:02:00.144Z,6.60
2022-08-04T23:04:27.263Z,6.30
2022-08-04T23:06:54.976Z,6.70
2022-08-04T23:09:49.602Z,6.40
2022-08-04T23:12:27.482Z,6.10
2022-08-04T23:14:58.798Z,6.90
2022-08-04T23:17:28.127Z,6.10
2022-08-04T23:19:58.648Z,7.30
2022-08-04T23:22:41.580Z,6.80
2022-08-04T23:25:15.124Z,7.60
2022-08-04T23:27:51.534Z,7.20
2022-08-04T23:30:24.441Z,6.20
2022-08-04T23:32:57.311Z,6.70
2022-08-04T23:35:24.915Z,5.50
2022-08-04T23:37:57.270Z,5.80
2022-08-04T23:40:33.051Z,6.60
2022-08-04T23:43:12.295Z,6.80
2022-08-04T23:46:04.126Z,6.70
2022-08-04T23:48:35.433Z,6.60
2022-08-04T23:51:10.353Z,6.30
2022-08-04T23:54:03.346Z,5.60
2022-08-04T23:56:33.935Z,7.30
2022-08-04T23:59:03.893Z,6.40
